Home > Products > Valid Products > MTR

000
SAUS41 KOKX 271656 COR
MTRNYC
METAR KNYC 271651Z AUTO 36009G19KT 330V030 4SM HZ BKN038 OVC049
M03/M08 A2969 RMK AO2 SNE38 SLP047 P0000 T10281078 $





000
SAUS41 KOKX 271655
MTRMTP
METAR KMTP 271654Z AUTO 35017G30KT M04/M09 A2953 RMK AO1 PK WND
34033/1621 SLP999 T10441094 $





000
SAUS41 KOKX 271653 COR
MTRNYC
METAR KNYC 271651Z AUTO 36009G19KT 330V030 4SM HZ BKN038 OVC049
M03/M08 A2969 RMK AO2 SNE38 SLP047 P0000 T10281078 $





000
SAUS41 KOKX 271652
MTRNYC
METAR KNYC 271651Z AUTO 36009G19KT 330V030 4SM HZ BKN038 OVC049
M03/M08 A2969 RMK AO2 SNE38 SLP047 P0000 T10281078 $





000
SAUS41 KOKX 271649
MTRNYC
SPECI KNYC 271648Z AUTO 34011G19KT 270V020 3SM HZ BKN038 OVC049
M03/M08 A2969 RMK AO2 SNE38 P0000 $





000
SAUS41 KOKX 271635
MTRNYC
SPECI KNYC 271634Z AUTO 36010KT 2SM -SN BKN030 OVC038 M03/M08 A2969
RMK AO2 P0000 T10331078 $





000
SAUS41 KOKX 271555
MTRMTP
METAR KMTP 271554Z AUTO 34019G26KT M05/M09 A2953 RMK AO1 PK WND
36031/1506 SLP000 T10501089 $





000
SAUS41 KOKX 271553
MTRNYC
METAR KNYC 271551Z AUTO 32007G18KT 270V010 1 3/4SM -SN BKN028 OVC036
M04/M08 A2970 RMK AO2 SNB44 SLP050 P0000 T10391083 $





000
SAUS41 KOKX 271553
MTRNYC
METAR KNYC 271551Z AUTO 32007G18KT 270V010 1 3/4SM -SN BKN028 OVC036
M04/M08 A2970 RMK AO2 SNB44 SLP050 P0000 T10391083 $





000
SAUS41 KOKX 271548
MTRNYC
SPECI KNYC 271546Z AUTO 31008G15KT 2SM -SN BKN028 OVC039 M04/M09
A2970 RMK AO2 SNB44 P0000 $





000
SAUS41 KOKX 271548
MTRNYC
SPECI KNYC 271546Z AUTO 31008G15KT 2SM -SN BKN028 OVC039 M04/M09
A2970 RMK AO2 SNB44 P0000 $





000
SAUS41 KOKX 271455
MTRMTP
METAR KMTP 271454Z AUTO 34019G31KT M06/M08 A2952 RMK AO1 PK WND
35031/1451 SLP997 P0002 60012 T10561083 51020 $





000
SAUS41 KOKX 271452
MTRNYC
METAR KNYC 271451Z AUTO 31005KT 4SM HZ OVC034 M05/M09 A2970 RMK AO2
SLP050 60000 T10501089 50006 $





000
SAUS41 KOKX 271437
MTRNYC
SPECI KNYC 271435Z AUTO 34007KT 3SM HZ FEW021 OVC033 M05/M09 A2970
RMK AO2 T10501089 $





000
SAUS41 KOKX 271430
MTRNYC
SPECI KNYC 271428Z AUTO VRB05KT 2 1/2SM HZ FEW024 OVC033 M05/M09
A2971 RMK AO2 T10501094 $





000
SAUS41 KOKX 271355
MTRMTP
METAR KMTP 271354Z AUTO 34019G27KT M06/M08 A2950 RMK AO1 PK WND
34029/1316 SLP990 P0003 T10611078 $





000
SAUS41 KOKX 271354
MTRNYC
METAR KNYC 271351Z AUTO 3SM HZ FEW027 OVC033 M05/M09 A2971 RMK AO2
SNB10E37 SLP053 P0000 T10501094 $





000
SAUS41 KOKX 271337
MTRNYC
SPECI KNYC 271335Z AUTO 36007KT 290V090 3SM -SN FEW026 OVC033
M05/M10 A2971 RMK AO2 SNB10 P0000 T10501100 $





000
SAUS41 KOKX 271322
MTRNYC
SPECI KNYC 271321Z AUTO 35007G23KT 320V060 2SM -SN BKN037 OVC047
M05/M10 A2971 RMK AO2 SNB10 P0000 T10501100 $





000
SAUS41 KOKX 271255
MTRMTP
METAR KMTP 271254Z AUTO 36017G28KT M06/M07 A2950 RMK AO1 PK WND
36034/1214 SLP988 P0007 T10561072 $





000
SAUS41 KOKX 271252
MTRNYC
METAR KNYC 271251Z AUTO VRB06G17KT 8SM OVC048 M05/M11 A2970 RMK AO2
SLP050 T10501106 $





000
SAUS41 KOKX 271155
MTRMTP
METAR KMTP 271154Z AUTO 01023G34KT M06/M07 A2946 RMK AO1 PK WND
02038/1120 SLP977 P0012 60049 70072 T10561067 11028 21056 58015 $





000
SAUS41 KOKX 271152
MTRNYC
METAR KNYC 271151Z AUTO 9SM OVC049 M06/M11 A2968 RMK AO2 SLP045
60023 70078 T10561111 11044 21061 55001 $





000
SAUS41 KOKX 271055
MTRMTP
METAR KMTP 271054Z AUTO 01022G36KT M05/M07 A2948 RMK AO1 PK WND
33041/1004 SLP984 P0016 T10501067 $





000
SAUS41 KOKX 271053
MTRNYC
METAR KNYC 271051Z AUTO 34007G15KT 310V040 5SM HZ FEW021 BKN040
OVC050 M06/M11 A2967 RMK AO2 PK WND 33026/1021 SNE43 SLP039 P0001
T10611106





000
SAUS41 KOKX 271046
MTRNYC
SPECI KNYC 271044Z AUTO 01008G20KT 320V080 4SM HZ FEW022 BKN038
OVC047 M06/M10 A2966 RMK AO2 PK WND 33026/1021 SNE43 P0001 T10611100





000
SAUS41 KOKX 271034
MTRNYC
SPECI KNYC 271032Z AUTO 01009G21KT 330V060 2SM -SN FEW016 OVC031
M06/M10 A2966 RMK AO2 PK WND 33026/1021 P0001 T10611100





000
SAUS41 KOKX 271001
MTRNYC
SPECI KNYC 271000Z AUTO VRB06G19KT 1SM -SN VV017 M06/M09 A2968 RMK
AO2 P0000 T10611094





000
SAUS41 KOKX 270955
MTRMTP
METAR KMTP 270954Z AUTO 01021G34KT M05/M07 A2950 RMK AO1 PK WND
36039/0857 SLP990 P0013 T10501067 $





000
SAUS41 KOKX 270955
MTRMTP
METAR KMTP 270954Z AUTO 01021G34KT M05/M07 A2950 RMK AO1 PK WND
36039/0857 SLP990 P0013 T10501067 $





000
SAUS41 KOKX 270952
MTRNYC
METAR KNYC 270951Z AUTO 36009G15KT 320V050 3/4SM -SN VV017 M06/M09
A2969 RMK AO2 SLP048 P0003 T10611094





000
SAUS41 KOKX 270952
MTRNYC
METAR KNYC 270951Z AUTO 36009G15KT 320V050 3/4SM -SN VV017 M06/M09
A2969 RMK AO2 SLP048 P0003 T10611094





000
SAUS41 KOKX 270948
MTRNYC
SPECI KNYC 270947Z AUTO VRB05G19KT 3/4SM -SN VV016 M06/M09 A2969 RMK
AO2 P0003





000
SAUS41 KOKX 270948
MTRNYC
SPECI KNYC 270947Z AUTO VRB05G19KT 3/4SM -SN VV016 M06/M09 A2969 RMK
AO2 P0003





000
SAUS41 KOKX 270931
MTRNYC
SPECI KNYC 270930Z AUTO VRB05G16KT 1SM -SN VV015 M06/M09 A2967 RMK
AO2 P0002 T10611094





000
SAUS41 KOKX 270855
MTRMTP
METAR KMTP 270854Z AUTO 36019G35KT M04/M06 A2951 RMK AO1 PK WND
36041/0802 SLP992 P0002 60008 T10441061 $





000
SAUS41 KOKX 270853
MTRNYC
METAR KNYC 270851Z AUTO 02010G17KT 1/2SM SN VV012 M06/M09 A2968 RMK
AO2 SLP043 P0005 60019 T10611089 56006





000
SAUS41 KOKX 270812
MTRNYC
SPECI KNYC 270811Z AUTO 02010G20KT 340V070 1/2SM SN VV013 M06/M09
A2969 RMK AO2 P0001 T10561089





000
SAUS41 KOKX 270802
MTRNYC

METAR KNYC 270751Z AUTO 03007G16KT 3/4SM -SN FEW012 OVC016 M06/M08
    A2969 RMK AO2 SLP046 P0003 T10561083











000
SAUS41 KOKX 270756 COR
MTRNYC
METAR KNYC 270751Z AUTO 03007G16KT 3/4SM -SN FEW012 OVC016 M06/M08
A2969 RMK AO2 SLP046 P0003 T10561083





000
SAUS41 KOKX 270755
MTRMTP
METAR KMTP 270754Z AUTO 01025G37KT M04/M07 A2953 RMK AO1 PK WND
01042/0722 SLP998 P0002 T10441067 $





000
SAUS41 KOKX 270750
MTRNYC
SPECI KNYC 270749Z AUTO 02009G16KT 340V050 3/4SM -SN SCT012 OVC018
M06/M08 A2969 RMK AO2 P0003





000
SAUS41 KOKX 270728
MTRNYC
SPECI KNYC 270727Z AUTO 03011G16KT 360V090 1SM -SN SCT011 OVC017
M05/M08 A2969 RMK AO2 P0002 T10501083





000
SAUS41 KOKX 270714
MTRNYC
SPECI KNYC 270712Z AUTO VRB06G19KT 3/4SM -SN VV015 M05/M08 A2969 RMK
AO2 P0001 T10501083





000
SAUS41 KOKX 270659
MTRNYC

METAR KNYC 270651Z AUTO 02014G19KT 3/4SM -SN VV012 M05/M08 A2970
RMK AO2 SLP049 P0011 T10501083








000
SAUS41 KOKX 270655
MTRMTP
METAR KMTP 270654Z AUTO 01024G37KT M04/M06 A2954 RMK AO1 PK WND
01037/0651 SLP003 P0004 T10441056 $





000
SAUS41 KOKX 270652
MTRNYC
METAR KNYC 270651Z AUTO 02014G19KT 3/4SM -SN VV012 M05/M08 A2970 RMK
AO2 SLP049 P0011 T10501083





000
SAUS41 KOKX 270552
MTRNYC
METAR KNYC 270551Z AUTO VRB06G18KT 1/4SM +SN FZFG VV006 M04/M07
A2970 RMK AO2 SLP049 P0008 60014 T10441067 11028 21044 56026





000
SAUS41 KOKX 270537
MTRNYC
SPECI KNYC 270536Z AUTO 03011G21KT 360V070 1/4SM SN FZFG BKN008
OVC014 M04/M07 A2970 RMK AO2 P0005 T10441067





000
SAUS41 KOKX 270456
MTRMTP
METAR KMTP 270454Z AUTO 02025G42KT M01/M02 A2955 RMK AO1 PK WND
01042/0424 PRESFR SLP007 P0001 T10111022 400061039





000
SAUS41 KOKX 270452
MTRNYC
METAR KNYC 270451Z AUTO 02010G20KT 3/4SM -SN OVC013 M04/M07 A2971
RMK AO2 PK WND 03026/0403 SLP052 P0003 T10391072 410061056





000
SAUS41 KOKX 270432
MTRNYC
SPECI KNYC 270430Z AUTO 03012G21KT 010V070 3/4SM -SN OVC014 M04/M07
A2971 RMK AO2 PK WND 03026/0403 P0002 T10391072





000
SAUS41 KOKX 270422
MTRNYC
SPECI KNYC 270421Z AUTO 03013G22KT 3/4SM -SN VV015 M04/M07 A2972 RMK
AO2 PK WND 03026/0403 P0001 T10391067





000
SAUS41 KOKX 270407
MTRNYC
SPECI KNYC 270406Z AUTO 03010G26KT 360V060 3/4SM -SN BKN013 OVC020
M04/M07 A2973 RMK AO2 PK WND 03026/0403 P0001 T10391067





000
SAUS41 KOKX 270355
MTRMTP
METAR KMTP 270354Z AUTO 02020G41KT M01/M02 A2961 RMK AO1 PK WND
02041/0345 SLP027 P0003 T10061022





000
SAUS41 KOKX 270353
MTRNYC
METAR KNYC 270351Z AUTO 01013G20KT 1SM -SN SCT013 BKN017 OVC026
M03/M07 A2974 RMK AO2 SLP064 P0002 T10331067





000
SAUS41 KOKX 270255
MTRMTP
METAR KMTP 270254Z AUTO 02020G35KT M01/M02 A2967 RMK AO1 PK WND
02036/0235 SLP048 P0003 60009 T10061017 58055





000
SAUS41 KOKX 270252
MTRNYC
METAR KNYC 270251Z AUTO 04011G23KT 360V090 1SM -SN FEW017 OVC023
M03/M07 A2977 RMK AO2 PK WND 05026/0238 SLP075 P0001 60001 T10331067
58015





000
SAUS41 KOKX 270237
MTRNYC
SPECI KNYC 270236Z AUTO 04014G24KT 1 1/2SM -SN OVC023 M03/M07 A2978
RMK AO2 P0001 T10331067





000
SAUS41 KOKX 270155
MTRMTP
METAR KMTP 270154Z AUTO 03019G29KT M01/M02 A2974 RMK AO1 PK WND
03032/0056 PRESFR SLP070 P0004 T10061017





000
SAUS41 KOKX 270152
MTRNYC
METAR KNYC 270151Z AUTO 05011G25KT 350V080 2 1/2SM -SN OVC018
M03/M07 A2980 RMK AO2 PK WND 03026/0135 SLP084 P0000 T10281067





000
SAUS41 KOKX 270109
MTRNYC
SPECI KNYC 270108Z AUTO 05010G25KT 2 1/2SM -SN OVC017 M03/M06 A2981
RMK AO2 P0000 T10281061





000
SAUS41 KOKX 270056
MTRMTP
METAR KMTP 270054Z AUTO 04016G27KT 00/M02 A2980 RMK AO1 PK WND
03029/0033 SLP091 P0002 T00001017





000
SAUS41 KOKX 270052
MTRNYC
METAR KNYC 270051Z AUTO 05017G25KT 1 1/2SM -SN OVC016 M03/M06 A2982
RMK AO2 PK WND 04027/0026 SNB23 SLP090 P0000 T10281061





000
SAUS41 KOKX 270050
MTRNYC
SPECI KNYC 270048Z AUTO 05014G25KT 1 3/4SM -SN OVC016 M03/M06 A2982
RMK AO2 PK WND 04027/0026 SNB23 P0000





000
SAUS41 KOKX 270035
MTRNYC
SPECI KNYC 270034Z AUTO 05014G27KT 030V090 2SM -SN OVC016 M03/M06
A2982 RMK AO2 PK WND 04027/0026 SNB23 P0000 T10281061





000
SAUS41 KOKX 270016
MTRNYC
SPECI KNYC 270015Z AUTO 06014G22KT 4SM HZ OVC016 M03/M06 A2984 RMK
AO2 PK WND 06027/2358 T10281061





000
SAUS41 KOKX 262355
MTRMTP
METAR KMTP 262354Z AUTO 04018G29KT 00/M02 A2984 RMK AO1 PK WND
05031/2303 SLP103 P0002 60009 T00001017 10006 21022 58016





000
SAUS41 KOKX 262353
MTRNYC
METAR KNYC 262351Z AUTO 05014G29KT 4SM HZ OVC014 M03/M07 A2985 RMK
AO2 PK WND 05029/2329 SNE30 SLP100 P0001 60039 T10281067 11028 21050
58003





000
SAUS41 KOKX 262333
MTRNYC
SPECI KNYC 262331Z AUTO 06015G29KT 4SM HZ OVC014 M03/M07 A2985 RMK
AO2 PK WND 05029/2329 SNE30 P0000 T10281067





000
SAUS41 KOKX 262314
MTRNYC
SPECI KNYC 262312Z AUTO 06012G25KT 020V090 3SM -SN OVC015 M03/M07
A2986 RMK AO2 P0000 T10281067





000
SAUS41 KOKX 262302
MTRNYC
SPECI KNYC 262300Z AUTO 06014G20KT 020V100 2 1/2SM -SN OVC015
M03/M07 A2986 RMK AO2 P0000 T10281067





000
SAUS41 KOKX 262255
MTRMTP
METAR KMTP 262254Z AUTO 05014G30KT 00/M02 A2986 RMK AO1 PK WND
05030/2159 SLP112 P0002 T00001017





000
SAUS41 KOKX 262253
MTRNYC
METAR KNYC 262251Z AUTO 05015G26KT 1 1/2SM -SN OVC014 M03/M06 A2986
RMK AO2 PK WND 07026/2242 SLP103 P0003 T10331061





000
SAUS41 KOKX 262245
MTRNYC
SPECI KNYC 262243Z AUTO 06017G26KT 1SM -SN OVC014 M03/M06 A2985 RMK
AO2 PK WND 07026/2242 P0003 T10331061





000
SAUS41 KOKX 262206
MTRNYC
SPECI KNYC 262205Z AUTO 05011G22KT 1/2SM SN OVC012 M03/M06 A2985 RMK
AO2 P0001 T10331061





000
SAUS41 KOKX 262155
MTRMTP
METAR KMTP 262154Z AUTO 05014G26KT 00/M02 A2989 RMK AO1 PK WND
05031/2133 SLP121 P0001 T00001017





000
SAUS41 KOKX 262153
MTRNYC
METAR KNYC 262151Z AUTO 05013G21KT 1/4SM SN FZFG OVC009 M04/M06
A2985 RMK AO2 SLP102 P0011 T10391061





000
SAUS41 KOKX 262055
MTRMTP
METAR KMTP 262054Z AUTO 04014G25KT 00/M02 A2988 RMK AO1 SLP119 P0002
60004 T00001022 56022





000
SAUS41 KOKX 262052
MTRNYC
METAR KNYC 262051Z AUTO 05010G24KT M1/4SM SN FZFG VV005 M04/M07
A2986 RMK AO2 PRESFR SLP103 P0013 60024 T10441067 58016





000
SAUS41 KOKX 261955
MTRMTP
METAR KMTP 261954Z AUTO 04013G25KT M01/M03 A2990 RMK AO1 SLP125
P0002 T10111028





000
SAUS41 KOKX 261952
MTRNYC
METAR KNYC 261951Z AUTO 05011G17KT 020V090 1/4SM +SN VV008 M04/M07
A2988 RMK AO2 SLP112 P0008 T10441072





000
SAUS41 KOKX 261923
MTRNYC
SPECI KNYC 261922Z AUTO 06010G18KT 1/4SM +SN VV008 M05/M08 A2988 RMK
AO2 P0003 T10501078





000
SAUS41 KOKX 261911
MTRNYC
SPECI KNYC 261910Z AUTO 05015G20KT 1/4SM +SN VV011 M04/M08 A2989 RMK
AO2 P0002 T10441078





000
SAUS41 KOKX 261855
MTRMTP
METAR KMTP 261854Z AUTO 04014G23KT M01/M03 A2993 RMK AO1 SLP134
T10111033





000
SAUS41 KOKX 261852
MTRNYC
METAR KNYC 261851Z AUTO 06015G20KT 3/4SM -SN BKN015 OVC021 M05/M09
A2990 RMK AO2 SLP119 P0003 T10501089





000
SAUS41 KOKX 261840
MTRNYC
SPECI KNYC 261838Z AUTO 05016G23KT 1SM -SN BKN017 BKN024 OVC030
M05/M09 A2990 RMK AO2 P0001 T10501089





000
SAUS41 KOKX 261819
MTRNYC
SPECI KNYC 261817Z AUTO 06013G21KT 3/4SM -SN OVC016 M05/M09 A2991
RMK AO2 P0001 T10501089





000
SAUS41 KOKX 261755
MTRMTP
METAR KMTP 261754Z AUTO 05013G21KT M02/M04 A2995 RMK AO1 SLP141
60001 T10221044 11022 21039 58033





000
SAUS41 KOKX 261753
MTRNYC
METAR KNYC 261751Z AUTO 05010G21KT 1 1/4SM -SN BKN016 OVC026 M05/M09
A2990 RMK AO2 SNB22 SLP119 P0000 60002 T10501094 11039 21056 58032





000
SAUS41 KOKX 261740
MTRNYC
SPECI KNYC 261738Z AUTO 04012G21KT 360V070 1 1/2SM -SN OVC015
M05/M09 A2992 RMK AO2 SNB22 P0000 T10501094





000
SAUS41 KOKX 261732
MTRNYC
SPECI KNYC 261730Z AUTO 05009G23KT 010V080 2SM -SN OVC015 M05/M09
A2992 RMK AO2 SNB22 P0000 T10501094





000
SAUS41 KOKX 261655
MTRMTP
METAR KMTP 261654Z AUTO 04010G19KT M03/M06 A2999 RMK AO1 PRESFR
SLP154 P0001 T10281056





000
SAUS41 KOKX 261652
MTRNYC
METAR KNYC 261651Z AUTO 06015G26KT 7SM BKN016 OVC024 M05/M10 A2996
RMK AO2 PK WND 04026/1649 SNE1553 PRESFR SLP137 P0001 T10501100





000
SAUS41 KOKX 261648
MTRNYC
SPECI KNYC 261647Z AUTO 05011G20KT 5SM HZ BKN015 OVC026 M06/M10
A2996 RMK AO2 SNE1553 PRESFR P0001





000
SAUS41 KOKX 261616
MTRNYC
SPECI KNYC 261614Z AUTO 08013G24KT 2 1/2SM HZ BKN015 OVC026 M05/M09
A2999 RMK AO2 SNE1553 P0001 T10501094





000
SAUS41 KOKX 261555
MTRMTP
METAR KMTP 261554Z AUTO 04008G19KT M03/M07 A3004 RMK AO1 SLP173
T10331067





000
SAUS41 KOKX 261552
MTRNYC
METAR KNYC 261551Z AUTO 06013G19KT 1 1/4SM -SN BKN015 OVC021 M04/M09
A3000 RMK AO2 PK WND 05026/1530 SNE11B22 SLP151 P0000 T10441089





000
SAUS41 KOKX 261533
MTRNYC
SPECI KNYC 261532Z AUTO 06016G26KT 1 1/2SM -SN BKN015 OVC034 M04/M09
A3001 RMK AO2 PK WND 05026/1530 SNE11B22 P0000 T10441089





000
SAUS41 KOKX 261518
MTRNYC
SPECI KNYC 261517Z AUTO 06013G23KT 2 1/2SM HZ BKN015 OVC033 M04/M09
A3001 RMK AO2 SNE11 P0000 T10441089





000
SAUS41 KOKX 261504
MTRNYC
SPECI KNYC 261503Z AUTO 08015G22KT 1 1/2SM -SN BKN015 OVC033 M04/M09
A3001 RMK AO2 P0000 T10441089





000
SAUS41 KOKX 261455
MTRMTP
METAR KMTP 261454Z AUTO 04010G18KT M03/M06 A3005 RMK AO1 SLP174
T10331061 55004





000
SAUS41 KOKX 261452
MTRNYC
METAR KNYC 261451Z AUTO 06014G21KT 1/2SM SN BKN015 OVC035 M04/M08
A3001 RMK AO2 SLP156 P0001 60001 T10441083 58001





000
SAUS41 KOKX 261356
MTRNYC
SPECI KNYC 261354Z AUTO 07011G16KT 3/4SM -SN FEW019 BKN029 OVC034
M04/M09 A3002 RMK AO2 P0000 T10441089





000
SAUS41 KOKX 261356
MTRMTP
METAR KMTP 261354Z AUTO 04010G19KT M04/M08 A3004 RMK AO1 SLP173
T10391078





000
SAUS41 KOKX 261353
MTRNYC
METAR KNYC 261351Z AUTO 07007G15KT 030V100 1SM -SN FEW019 OVC034
M04/M09 A3002 RMK AO2 SNB38 SLP158 P0000 T10441089





000
SAUS41 KOKX 261348
MTRNYC
SPECI KNYC 261346Z AUTO 07008G21KT 040V110 2SM -SN FEW019 OVC034
M04/M09 A3002 RMK AO2 SNB38 P0000





000
SAUS41 KOKX 261255
MTRMTP
METAR KMTP 261254Z AUTO 05008G21KT M03/M09 A3005 RMK AO1 SLP177
T10331094





000
SAUS41 KOKX 261253
MTRNYC
METAR KNYC 261251Z AUTO 07011G20KT 3SM HZ OVC032 M04/M10 A3002 RMK
AO2 SNE34 SLP157 P0000 T10391100





000
SAUS41 KOKX 261234
MTRNYC
SPECI KNYC 261233Z AUTO 07011G21KT 040V110 4SM -SN OVC032 M04/M11
A3001 RMK AO2 P0000 T10441106





000
SAUS41 KOKX 261225
MTRNYC
SPECI KNYC 261224Z AUTO 07013G18KT 040V110 2 1/2SM -SN OVC032
M04/M11 A3001 RMK AO2 P0000 T10441106





000
SAUS41 KOKX 261155
MTRMTP
METAR KMTP 261154Z AUTO 05012G20KT M03/M11 A3006 RMK AO1 SLP178
T10331111 11022 21033 53001





000
SAUS41 KOKX 261152
MTRNYC
METAR KNYC 261151Z AUTO 05012G20KT 010V080 4SM -SN OVC033 M04/M11
A3002 RMK AO2 SNB42 SLP158 P0000 60000 T10441111 11017 21044 55005





000
SAUS41 KOKX 261055
MTRMTP
METAR KMTP 261054Z AUTO 06007G15KT M03/M11 A3005 RMK AO1 SLP176
T10281111





000
SAUS41 KOKX 261052
MTRNYC
METAR KNYC 261051Z AUTO 06011G17KT 9SM BKN037 OVC048 M04/M13 A3002
RMK AO2 SLP157 T10441128





000
SAUS41 KOKX 260955
MTRMTP
METAR KMTP 260954Z AUTO 05009G16KT M03/M11 A3005 RMK AO1 SLP177
T10281111





000
SAUS41 KOKX 260952
MTRNYC
METAR KNYC 260951Z AUTO 05010KT 10SM BKN038 OVC055 M04/M14 A3003 RMK
AO2 SNB12E21 SLP161 P0000 T10391144





000
SAUS41 KOKX 260855
MTRMTP
METAR KMTP 260854Z AUTO 03006KT M03/M13 A3006 RMK AO1 SLP177
T10281128 50008





000
SAUS41 KOKX 260853
MTRNYC
METAR KNYC 260851Z AUTO 07004KT 10SM BKN040 OVC050 M03/M14 A3004 RMK
AO2 SLP164 T10331144 51006





000
SAUS41 KOKX 260755
MTRMTP
METAR KMTP 260754Z AUTO 03006KT M03/M13 A3006 RMK AO1 SLP180
T10281133





000
SAUS41 KOKX 260752
MTRNYC
METAR KNYC 260751Z AUTO 05010KT 360V070 10SM OVC050 M03/M16 A3003
RMK AO2 SLP162 T10331161





000
SAUS41 KOKX 260655
MTRMTP
METAR KMTP 260654Z AUTO 03009G17KT M03/M13 A3004 RMK AO1 SLP171
T10281133





000
SAUS41 KOKX 260652
MTRNYC
METAR KNYC 260651Z AUTO 04005KT 10SM OVC046 M02/M16 A3004 RMK AO2
SLP164 T10221156





000
SAUS41 KOKX 260555
MTRMTP
METAR KMTP 260554Z AUTO 01010G17KT M02/M12 A3003 RMK AO1 SLP168
T10221122 10017 21022 51016





000
SAUS41 KOKX 260552
MTRNYC
METAR KNYC 260551Z AUTO 04005KT 10SM OVC070 M02/M13 A3002 RMK AO2
SLP158 T10171133 10022 21017 52008





000
SAUS41 KOKX 260455
MTRMTP
METAR KMTP 260454Z AUTO 35011G17KT M02/M13 A3002 RMK AO1 SLP164
T10171128 400611017





000
SAUS41 KOKX 260453
MTRNYC
METAR KNYC 260451Z AUTO VRB05G14KT 10SM FEW070 FEW090 SCT110 M01/M12
A3001 RMK AO2 SLP155 T10061122 400561006





000
SAUS41 KOKX 260355
MTRMTP
METAR KMTP 260354Z AUTO 35007KT M01/M14 A3001 RMK AO1 SLP162
T10111139





000
SAUS41 KOKX 260353
MTRNYC
METAR KNYC 260351Z AUTO 02011G15KT 10SM OVC060 00/M13 A3000 RMK AO2
SLP152 T00001128





000
SAUS41 KOKX 260255
MTRMTP
METAR KMTP 260254Z AUTO 33011KT M01/M13 A2998 RMK AO1 SLP153
T10061133 51029





000
SAUS41 KOKX 260252
MTRNYC
METAR KNYC 260251Z AUTO VRB03KT 10SM BKN055 OVC075 00/M12 A2999 RMK
AO2 SLP149 T00001122 51022





000
SAUS41 KOKX 260155
MTRMTP
METAR KMTP 260154Z AUTO 35009KT 01/M11 A2997 RMK AO1 SLP147
T00061111





000
SAUS41 KOKX 260152
MTRNYC
METAR KNYC 260151Z AUTO VRB04KT 10SM OVC055 01/M13 A2998 RMK AO2
SLP144 T00111128





000
SAUS41 KOKX 260152
MTRNYC
METAR KNYC 260151Z AUTO VRB04KT 10SM OVC055 01/M13 A2998 RMK AO2
SLP144 T00111128





000
SAUS41 KOKX 260055
MTRMTP
METAR KMTP 260054Z AUTO 34009KT 01/M12 A2994 RMK AO1 SLP136
T00111117





000
SAUS41 KOKX 260055 COR
MTRNYC
METAR KNYC 260051Z AUTO VRB03KT 10SM CLR 02/M12 A2996 RMK AO2 SLP137
T00171122





000
SAUS41 KOKX 260053 COR
MTRNYC
METAR KNYC 260051Z AUTO VRB03KT 10SM CLR 02/M12 A2996 RMK AO2 SLP137
T00171122





000
SAUS41 KOKX 252355
MTRMTP
METAR KMTP 252354Z AUTO 32010KT 02/M10 A2990 RMK AO1 SLP124
T00171100 10061 20017 51037





000
SAUS41 KOKX 252352
MTRNYC
METAR KNYC 252351Z AUTO VRB03KT 10SM FEW060 02/M13 A2993 RMK AO2
SLP128 T00221133 10056 20017 53035





000
SAUS41 KOKX 252255
MTRMTP
METAR KMTP 252254Z AUTO 32009KT 02/M09 A2987 RMK AO1 SLP115
T00221094





000
SAUS41 KOKX 252252
MTRNYC
METAR KNYC 252251Z AUTO 30004KT 10SM CLR 03/M14 A2990 RMK AO2 SLP117
T00281139





000
SAUS41 KOKX 252155
MTRMTP
METAR KMTP 252154Z AUTO 32009KT 03/M08 A2982 RMK AO1 SLP098
T00281083





000
SAUS41 KOKX 252153
MTRNYC
METAR KNYC 252151Z AUTO 00000KT 10SM CLR 03/M12 A2986 RMK AO2 SLP103
T00331122





000
SAUS41 KOKX 252153
MTRNYC
METAR KNYC 252151Z AUTO 00000KT 10SM CLR 03/M12 A2986 RMK AO2 SLP103
T00331122





000
SAUS41 KOKX 252055
MTRMTP
METAR KMTP 252054Z AUTO 31012G18KT 04/M07 A2979 RMK AO1 SLP087
T00391072 53030





000
SAUS41 KOKX 252052
MTRNYC
METAR KNYC 252051Z AUTO VRB05KT 10SM CLR 05/M10 A2983 RMK AO2 SLP092
T00501100 53011





000
SAUS41 KOKX 251955
MTRMTP
METAR KMTP 251954Z AUTO 28011G18KT 06/M06 A2975 RMK AO1 SLP075
T00561061





000
SAUS41 KOKX 251953
MTRNYC
METAR KNYC 251951Z AUTO 31009G17KT 10SM CLR 06/M12 A2981 RMK AO2
SLP085 T00561117





000
SAUS41 KOKX 251855
MTRMTP
METAR KMTP 251854Z AUTO 26012G20KT 06/M04 A2973 RMK AO1 SLP067
T00561044





000
SAUS41 KOKX 251853
MTRNYC
METAR KNYC 251851Z AUTO 29007KT 250V330 10SM CLR 06/M11 A2979 RMK
AO2 SLP080 T00561106





000
SAUS41 KOKX 251755
MTRMTP
METAR KMTP 251754Z AUTO 26012G21KT 06/M04 A2970 RMK AO1 SLP057
T00561039 10056 20028 53005





000
SAUS41 KOKX 251752
MTRNYC
METAR KNYC 251751Z AUTO VRB05G20KT 10SM CLR 06/M10 A2979 RMK AO2
SLP081 T00561100 10056 20017 53014





000
SAUS41 KOKX 251655
MTRMTP
METAR KMTP 251654Z AUTO 27011G21KT 05/M03 A2968 RMK AO1 SLP051
T00501028





000
SAUS41 KOKX 251653
MTRNYC
METAR KNYC 251651Z AUTO VRB03G23KT 10SM CLR 05/M10 A2977 RMK AO2
SLP073 T00501100





000
SAUS41 KOKX 251555
MTRMTP
METAR KMTP 251554Z AUTO 26014G22KT 05/M02 A2970 RMK AO1 SLP056
T00501022





000
SAUS41 KOKX 251553
MTRNYC
METAR KNYC 251551Z AUTO 30006G16KT 10SM FEW040 05/M04 A2976 RMK AO2
SLP069 T00501039





000
SAUS41 KOKX 251455
MTRMTP
METAR KMTP 251454Z AUTO 25009G20KT 04/M02 A2968 RMK AO1 SLP051
T00391017 53029





000
SAUS41 KOKX 251452
MTRNYC
METAR KNYC 251451Z AUTO 28004KT 9SM CLR 04/M03 A2975 RMK AO2 SLP067
T00391028 51029





000
SAUS41 KOKX 251355
MTRMTP
METAR KMTP 251354Z AUTO 25012G20KT 03/M02 A2965 RMK AO1 SLP041
T00331022





000
SAUS41 KOKX 251353
MTRNYC
METAR KNYC 251351Z AUTO 27006KT 9SM BKN047 BKN060 03/M03 A2973 RMK
AO2 SLP060 T00281033





000
SAUS41 KOKX 251255
MTRMTP
METAR KMTP 251254Z AUTO 25010G18KT 03/M02 A2962 RMK AO1 SLP030
T00281022





000
SAUS41 KOKX 251253
MTRNYC
METAR KNYC 251251Z AUTO 23007G23KT 190V260 10SM OVC060 02/M04 A2970
RMK AO2 PK WND 26026/1223 SLP050 T00221039





000
SAUS41 KOKX 251155
MTRMTP
METAR KMTP 251154Z AUTO 27009G18KT 03/M02 A2960 RMK AO1 SLP022 70066
T00281017 10028 20022 53025





000
SAUS41 KOKX 251152
MTRNYC
METAR KNYC 251151Z AUTO 26010G17KT 10SM OVC050 02/M04 A2967 RMK AO2
SLP038 70006 T00221044 10028 20011 51022





000
SAUS41 KOKX 251055
MTRMTP
METAR KMTP 251054Z AUTO 26009G20KT 03/M02 A2957 RMK AO1 SLP011
T00281022





000
SAUS41 KOKX 251052
MTRNYC
METAR KNYC 251051Z AUTO 27005KT 10SM CLR 02/M04 A2965 RMK AO2 SLP033
T00171044





000
SAUS41 KOKX 250955
MTRMTP
METAR KMTP 250954Z AUTO 26011G18KT 03/M02 A2954 RMK AO1 SLP002
T00281022





000
SAUS41 KOKX 250952
MTRNYC
METAR KNYC 250951Z AUTO VRB05KT 10SM CLR 01/M04 A2962 RMK AO2 SLP021
T00111044





000
SAUS41 KOKX 250952
MTRNYC
METAR KNYC 250951Z AUTO VRB05KT 10SM CLR 01/M04 A2962 RMK AO2 SLP021
T00111044





000
SAUS41 KOKX 250855
MTRMTP
METAR KMTP 250854Z AUTO 27010G17KT 03/M02 A2952 RMK AO1 SLP997
T00281022 51030





000
SAUS41 KOKX 250852
MTRNYC
METAR KNYC 250851Z AUTO 26006KT 10SM FEW065 02/M04 A2960 RMK AO2
SLP015 T00221044 51026





000
SAUS41 KOKX 250755
MTRMTP
METAR KMTP 250754Z AUTO 27012G18KT 02/M03 A2950 RMK AO1 SLP990
T00221028





000
SAUS41 KOKX 250753
MTRNYC
METAR KNYC 250751Z AUTO 26004KT 10SM BKN036 03/M04 A2958 RMK AO2
SLP009 T00281039





000
SAUS41 KOKX 250655
MTRMTP
METAR KMTP 250654Z AUTO 28011G19KT 02/M03 A2947 RMK AO1 SLP980
T00221033





000
SAUS41 KOKX 250653
MTRNYC
METAR KNYC 250651Z AUTO 28006KT 10SM OVC036 03/M04 A2956 RMK AO2
SLP001 T00281044





000
SAUS41 KOKX 250555
MTRMTP
METAR KMTP 250554Z AUTO 28012G18KT 03/M03 A2944 RMK AO1 SLP967 60002
T00281033 10028 20022 53026





000
SAUS41 KOKX 250552
MTRNYC
METAR KNYC 250551Z AUTO 28010G17KT 10SM OVC075 03/M05 A2952 RMK AO2
SLP990 T00281050 10039 20022 51020





000
SAUS41 KOKX 250455
MTRMTP
METAR KMTP 250454Z AUTO 28010G17KT 03/M03 A2941 RMK AO1 SLP960
T00281033 400330006





000
SAUS41 KOKX 250453
MTRNYC
METAR KNYC 250451Z AUTO 29008G15KT 10SM OVC080 02/M04 A2951 RMK AO2
SLP985 T00221044 400390006





000
SAUS41 KOKX 250355
MTRMTP
METAR KMTP 250354Z AUTO 29011G19KT 03/M03 A2938 RMK AO1 SLP948
T00281028





000
SAUS41 KOKX 250352
MTRNYC
METAR KNYC 250351Z AUTO 30007KT 240V320 10SM BKN080 02/M05 A2949 RMK
AO2 SLP979 T00221050





000
SAUS41 KOKX 250255
MTRMTP
METAR KMTP 250254Z AUTO 28011G23KT 03/M02 A2936 RMK AO1 SLP940 60002
T00281017 53026





000
SAUS41 KOKX 250252
MTRNYC
METAR KNYC 250251Z AUTO VRB06KT 10SM CLR 02/M05 A2946 RMK AO2 SLP970
T00221050 51028





000
SAUS41 KOKX 250155
MTRMTP
METAR KMTP 250154Z AUTO 27009KT 03/01 A2932 RMK AO1 SLP929 P0001
T00280011





000
SAUS41 KOKX 250155
MTRMTP
METAR KMTP 250154Z AUTO 27009KT 03/01 A2932 RMK AO1 SLP929 P0001
T00280011





000
SAUS41 KOKX 250152
MTRNYC
METAR KNYC 250151Z AUTO 30007KT 10SM CLR 03/M06 A2944 RMK AO2 SLP962
T00331056





000
SAUS41 KOKX 250152
MTRNYC
METAR KNYC 250151Z AUTO 30007KT 10SM CLR 03/M06 A2944 RMK AO2 SLP962
T00331056





000
SAUS41 KOKX 250055
MTRMTP
METAR KMTP 250054Z AUTO 29010KT 02/01 A2930 RMK AO1 SLP922 P0001
T00220006





000
SAUS41 KOKX 250053
MTRNYC
METAR KNYC 250051Z AUTO VRB06G16KT 10SM CLR 03/M04 A2941 RMK AO2
SLP953 T00331039





000
SAUS41 KOKX 242355
MTRMTP
METAR KMTP 242354Z AUTO 29010G17KT 02/01 A2928 RMK AO1 SLP914 P0006
60011 T00220011 10033 20017 51046





000
SAUS41 KOKX 242353
MTRNYC
METAR KNYC 242351Z AUTO 29006KT 9SM CLR 03/M01 A2938 RMK AO2 SLP941
60001 T00331011 10039 20017 51027





000
SAUS41 KOKX 242255
MTRMTP
METAR KMTP 242254Z AUTO 32010G21KT 03/01 A2924 RMK AO1 SLP900 P0001
T00280006





000
SAUS41 KOKX 242252
MTRNYC
METAR KNYC 242251Z AUTO 29007KT 8SM BKN065 OVC080 03/00 A2936 RMK
AO2 UPB00E20 SLP934 P0001 T00330000





000
SAUS41 KOKX 242155
MTRMTP
METAR KMTP 242154Z AUTO 32012G21KT 03/01 A2919 RMK AO1 PRESRR SLP884
T00280011





000
SAUS41 KOKX 242152
MTRNYC
METAR KNYC 242151Z AUTO VRB03KT 6SM HZ SCT013 OVC041 03/M01 A2934
RMK AO2 SLP929 T00281006





000
SAUS41 KOKX 242129
MTRNYC
SPECI KNYC 242127Z AUTO 32006KT 6SM HZ BKN013 OVC060 02/M01 A2933
RMK AO2 T00221006





000
SAUS41 KOKX 242059
MTRNYC
SPECI KNYC 242058Z AUTO VRB05KT 6SM HZ FEW013 OVC055 02/M01 A2930
RMK AO2 T00221006





000
SAUS41 KOKX 242055
MTRMTP
METAR KMTP 242054Z AUTO 01011G18KT 03/02 A2914 RMK AO1 SLP868 P0001
60004 T00280017 58046





000
SAUS41 KOKX 242052
MTRNYC
METAR KNYC 242051Z AUTO VRB04KT 6SM HZ SCT013 BKN026 OVC055 03/M01
A2930 RMK AO2 SLP914 T00281006 56023





000
SAUS41 KOKX 242007
MTRNYC
SPECI KNYC 242006Z AUTO VRB06KT 7SM OVC010 02/M01 A2930 RMK AO2
T00221006





000
SAUS41 KOKX 241955
MTRMTP
METAR KMTP 241954Z AUTO 01011G21KT 03/02 A2919 RMK AO1 SLP883 P0001
T00330017





000
SAUS41 KOKX 241952
MTRNYC
METAR KNYC 241951Z AUTO VRB03KT 6SM HZ BKN009 OVC016 03/00 A2930 RMK
AO2 CIG 007V012 SLP916 T00280000





000
SAUS41 KOKX 241855
MTRMTP
METAR KMTP 241854Z AUTO 01012G20KT 03/02 A2927 RMK AO1 SLP910 P0002
T00330022





000
SAUS41 KOKX 241852
MTRNYC
METAR KNYC 241851Z AUTO 35011G17KT 5SM BR BKN008 BKN015 OVC060 02/00
A2933 RMK AO2 SLP923 T00220000





000
SAUS41 KOKX 241822
MTRNYC
SPECI KNYC 241821Z AUTO VRB06KT 4SM BR OVC007 02/00 A2935 RMK AO2
T00170000





000
SAUS41 KOKX 241801
MTRNYC
SPECI KNYC 241800Z AUTO 2SM BR OVC005 02/00 A2934 RMK AO2 PRESFR
T00170000





000
SAUS41 KOKX 241755
MTRMTP
METAR KMTP 241754Z AUTO 01013G22KT 03/02 A2928 RMK AO1 SLP914 P0001
60053 T00280017 10033 20017 56078





000
SAUS41 KOKX 241752
MTRNYC
METAR KNYC 241751Z AUTO VRB06KT 1 3/4SM BR OVC005 02/00 A2937 RMK
AO2 SLP937 60005 T00170000 10022 20006 58041





000
SAUS41 KOKX 241740
MTRNYC
SPECI KNYC 241739Z AUTO VRB05KT 1 3/4SM BR BKN005 OVC009 02/00 A2938
RMK AO2 T00170000





000
SAUS41 KOKX 241726
MTRNYC
SPECI KNYC 241725Z AUTO VRB04KT 2SM BR OVC007 02/00 A2940 RMK AO2
T00170000





    US Dept of Commerce
    National Oceanic and Atmospheric Administration
    National Weather Service
    1325 East West Highway
    Silver Spring, MD 20910
    Page Author: NWS Internet Services Team
Disclaimer
Information Quality
Credits
Glossary
Privacy Policy
Freedom of Information Act (FOIA)
About Us
Career Opportunities